This is the latest recevied weather packets stored in our database for station/object AI4ZL. If no packets are shown the sender has not sent any weather packets the latest 10 day(s).
| Time | Temp. | Humidity | Pressure | Rain* | Wind** | Luminosity | Snow |
|---|---|---|---|---|---|---|---|
| 1778115032 | 13.89° C | 72% | 1016.9 hPa | 0 mm | - | 0 W/m² | - |
| 1778113826 | 14.44° C | 69% | 1016.4 hPa | 0 mm | - | 15 W/m² | - |
| 1778110833 | 15.56° C | 69% | 1015.4 hPa | 0 mm | - | 48 W/m² | - |
| 1778109626 | 15.56° C | 66% | 1015.3 hPa | 0 mm | - | 69 W/m² | - |
| 1778109031 | 15.56° C | 66% | 1015.4 hPa | 0 mm | - | 70 W/m² | - |
| 1778107824 | 16.11° C | 64% | 1015.7 hPa | 0 mm | - | 83 W/m² | - |
| 1778103029 | 15.56° C | 63% | 1016.1 hPa | 0 mm | - | 141 W/m² | - |
| 1778102417 | 15.56° C | 64% | 1016.5 hPa | 0 mm | - | 140 W/m² | - |
| 1778101822 | 15.56° C | 64% | 1016.7 hPa | 0 mm | - | 95 W/m² | - |
| 1778100021 | 15° C | 66% | 1016.8 hPa | 0 mm | - | 129 W/m² | - |
| 1778099426 | 15° C | 65% | 1016.8 hPa | 0 mm | - | 169 W/m² | - |
| 1778096416 | 15° C | 67% | 1016.9 hPa | 0 mm | - | 128 W/m² | - |
| 1778094019 | 16.11° C | 64% | 1016.6 hPa | 0 mm | - | 234 W/m² | - |
| 1778091642 | 17.22° C | 63% | 1016.5 hPa | 0 mm | - | 396 W/m² | - |
| 1778091027 | 16.67° C | 65% | 1016.4 hPa | 0 mm | - | 600 W/m² | - |
| 1778090432 | 16.11° C | 65% | 1016.6 hPa | 0 mm | - | 409 W/m² | - |
| 1778089225 | 16.11° C | 65% | 1016.9 hPa | 0 mm | - | 325 W/m² | - |
| 1778088018 | 15.56° C | 69% | 1016.6 hPa | 0 mm | - | 538 W/m² | - |
| 1778083818 | 15° C | 74% | 1017 hPa | 0 mm | - | 626 W/m² | - |
| 1778070626 | 8.33° C | 99% | 1014.7 hPa | 0 mm | - | 100 W/m² | - |
| 1778067633 | 7.78° C | 99% | 1014.2 hPa | 0 mm | - | 19 W/m² | - |
| 1778057433 | 7.78° C | 99% | 1012.8 hPa | 0.25 mm | - | 0 W/m² | - |
| 1778056226 | 7.78° C | 99% | 1012.2 hPa | 0.25 mm | - | 0 W/m² | - |
| 1778053217 | 8.89° C | 99% | 1011.7 hPa | 0 mm | - | 0 W/m² | - |
| 1778049630 | 9.44° C | 99% | 1011.6 hPa | 6.6 mm | - | 0 W/m² | - |
* Rain latest hour (hover to see other rain measurements)
** Current wind speed in m/s (hover to see current wind gust speed)